Dodge Center, MN (55927)

8:51 AM CDT on May 23, 2015 (GMT -0500)
Metal Bird Media Photography | | Change Station
CLOSE
Current Station
Personal Weather Station
Location: Kasson, MN
Elevation: 1257 ft
Nearby Weather Stations

Elev 1257 ft 44.03 °N, 92.78 °W | Updated 14 seconds ago

Clear
Clear
63.1 °F
Feels Like 63.1 °F
N
9.6
Wind Variable Wind from NW
Gusts 9.8 mph

Today
High -- | Low -- °F
--% Chance of Precip.
Yesterday
High -- | Low -- °F
Precip. -- in
5:37 AM 8:39 PM
Waxing Crescent, 30% visible
Pressure 30.27 in
Visibility 10.0 miles
Clouds Clear
Dew Point 29 °F
Humidity 27%
Rainfall 0.00 in
Snow Depth Not available.
UV 3 out of 12
Pollen 7.00 out of 12
Air Quality Not available.
Flu Activity Sporadic
METAR KTOB 231333Z AUTO 33006KT 10SM CLR 17/07 A3027 RMK AO2

More Conditions Fewer Conditions

Pressure 30.27 in
Visibility 10.0 miles
Clouds Clear
Dew Point 29 °F
Humidity 27%
Rainfall 0.00 in
Snow Depth Not available.
UV 3 out of 12
Pollen 7.00 out of 12
Air Quality Not available.
Flu Activity Sporadic
METAR KTOB 231333Z AUTO 33006KT 10SM CLR 17/07 A3027 RMK AO2

More Conditions Fewer Conditions

10-Day Weather Forecast

Almanac

Astronomy

May. 23, 2015 Rise Set
Actual Time
Civil Twilight
Nautical Twilight
Astronomical Twilight
Moon
Length of Visible Light
Length of Day
Tomorrow will be .
, % of the Moon is Illuminated

Today's Extremes

State Highs State Lows

Community

WunderPhotos

Upload Photos

1,823,467 photos uploaded!

WunderBlogs® & News

Nearby

Air Quality

  Air Quality AQ Index Pollutant
Not available.

Snow Depth

Station Depth Elevation

Earthquake Activity

City Distance Mag. Time & Date
Minimum magnitude displayed is 2.5.

Coastal Water Temperatures

Place Temperature

Stations

Nearby Weather Stations

Station Location Temp. Windchill Dew Point Humidity Wind Precip. Elev Updated Type